Time;durP1;ratioP1;P1;durP2;ratioP2;P2;SDS_P1;SDS_P2;PMS_P1;PMS_P2;Temp;Humidity;BMP_temperature;BMP_pressure;BME280_temperature;BME280_humidity;BME280_pressure;Samples;Min_cycle;Max_cycle;Signal;HPM_P1;HPM_P2
2022/11/25 05:31:09;;;;;;;5.75;2.28;;;9.00;82.70;;;;;;5570069;23;20117;-85
2022/11/25 05:33:35;;;;;;;7.00;2.05;;;9.00;82.60;;;;;;4957119;29;20047;-87
2022/11/25 05:36:02;;;;;;;5.60;2.20;;;8.90;82.40;;;;;;4952004;29;20020;-84
2022/11/25 05:38:28;;;;;;;8.65;2.08;;;8.90;82.50;;;;;;4952928;28;20476;-85
2022/11/25 05:41:01;;;;;;;10.25;2.30;;;9.00;82.60;;;;;;4938298;29;20027;-82
2022/11/25 05:43:26;;;;;;;7.32;2.08;;;9.00;82.70;;;;;;4955841;29;20047;-81
2022/11/25 05:45:52;;;;;;;10.10;2.17;;;9.00;82.70;;;;;;4956054;29;20042;-82
2022/11/25 05:48:18;;;;;;;7.10;1.63;;;9.00;82.80;;;;;;4940173;28;20524;-84
2022/11/25 05:50:43;;;;;;;8.93;2.20;;;9.00;82.90;;;;;;4938175;29;20032;-84
2022/11/25 05:53:10;;;;;;;7.35;2.30;;;9.00;82.90;;;;;;4948973;29;20085;-79
2022/11/25 05:55:36;;;;;;;9.57;2.25;;;9.00;82.70;;;;;;4955907;29;20478;-86
2022/11/25 05:58:03;;;;;;;5.35;1.73;;;9.00;82.80;;;;;;4956712;28;20038;-83
2022/11/25 06:00:29;;;;;;;5.85;2.03;;;9.10;82.70;;;;;;4955968;29;20082;-83
2022/11/25 06:02:54;;;;;;;5.55;1.88;;;9.10;82.50;;;;;;4953543;28;20031;-80
2022/11/25 06:05:20;;;;;;;7.50;2.20;;;9.10;82.40;;;;;;4957441;29;20035;-77
2022/11/25 06:07:46;;;;;;;3.10;1.33;;;9.10;82.00;;;;;;4956773;29;20027;-78
2022/11/25 06:10:12;;;;;;;9.32;2.15;;;9.00;82.30;;;;;;4951716;28;20095;-77
2022/11/25 06:12:37;;;;;;;7.53;2.35;;;8.90;82.10;;;;;;4955034;29;20043;-77
2022/11/25 06:15:04;;;;;;;7.85;1.73;;;8.90;82.20;;;;;;4955413;28;20391;-78
2022/11/25 06:17:29;;;;;;;2.88;1.70;;;8.90;82.50;;;;;;4957569;28;20067;-77
2022/11/25 06:19:55;;;;;;;3.35;1.67;;;8.90;82.40;;;;;;4957403;28;20038;-78
2022/11/25 06:22:20;;;;;;;6.28;2.10;;;8.80;82.40;;;;;;4952233;28;20031;-84
2022/11/25 06:24:46;;;;;;;6.20;2.05;;;8.80;82.40;;;;;;4953791;28;20039;-85
2022/11/25 06:27:12;;;;;;;3.88;1.50;;;8.80;82.30;;;;;;4956239;28;20030;-83
2022/11/25 06:29:42;;;;;;;5.60;1.83;;;8.80;82.20;;;;;;4940598;28;20154;-77
2022/11/25 06:32:08;;;;;;;6.30;1.75;;;8.80;82.00;;;;;;4936630;29;20052;-78
2022/11/25 06:34:35;;;;;;;4.90;1.58;;;8.70;82.00;;;;;;4936706;29;20069;-78
2022/11/25 06:37:00;;;;;;;2.65;1.92;;;8.80;82.00;;;;;;4947684;28;20027;-77
2022/11/25 06:39:26;;;;;;;3.83;1.70;;;8.70;82.20;;;;;;4959938;29;20038;-77
2022/11/25 06:41:52;;;;;;;4.40;1.63;;;8.70;82.40;;;;;;4960581;29;20102;-77
2022/11/25 06:44:17;;;;;;;8.98;2.00;;;8.70;81.80;;;;;;4960825;28;20034;-77
2022/11/25 06:46:45;;;;;;;8.93;1.80;;;8.70;82.20;;;;;;4959227;29;20109;-76
2022/11/25 06:49:11;;;;;;;8.80;2.65;;;8.70;82.10;;;;;;4960960;28;20038;-77
2022/11/25 06:51:36;;;;;;;5.78;2.03;;;8.70;82.50;;;;;;4960102;28;20032;-78
2022/11/25 06:54:02;;;;;;;9.38;3.03;;;8.70;82.60;;;;;;4960465;28;20027;-78
2022/11/25 06:56:28;;;;;;;11.27;3.92;;;8.60;82.40;;;;;;4960523;28;20027;-77
2022/11/25 06:58:55;;;;;;;3.83;2.90;;;8.70;82.50;;;;;;4960202;28;20034;-78
2022/11/25 07:01:23;;;;;;;10.13;3.83;;;8.60;82.30;;;;;;4958794;29;20027;-77
2022/11/25 07:03:52;;;;;;;6.05;3.15;;;8.60;82.50;;;;;;4959293;29;20031;-77
2022/11/25 07:06:19;;;;;;;9.25;4.45;;;8.60;82.60;;;;;;4960564;28;20107;-77
2022/11/25 07:08:45;;;;;;;6.57;3.90;;;8.50;82.70;;;;;;4960542;28;20038;-78
2022/11/25 07:11:17;;;;;;;6.07;3.40;;;8.50;82.50;;;;;;4950925;29;20024;-77
2022/11/25 07:13:43;;;;;;;8.43;3.42;;;8.50;82.40;;;;;;4959129;29;20031;-77
2022/11/25 07:16:10;;;;;;;10.25;3.63;;;8.50;82.30;;;;;;4959973;28;20027;-77
2022/11/25 07:18:37;;;;;;;6.68;3.15;;;8.50;82.00;;;;;;4959060;29;20039;-77
2022/11/25 07:21:08;;;;;;;6.82;3.13;;;8.40;82.10;;;;;;4959985;28;20028;-77
2022/11/25 07:23:35;;;;;;;13.23;3.85;;;8.30;81.70;;;;;;4960287;28;20039;-78
2022/11/25 07:26:07;;;;;;;5.53;3.47;;;8.30;81.90;;;;;;4958364;29;20051;-77
2022/11/25 07:28:34;;;;;;;5.72;2.53;;;8.30;82.00;;;;;;4960092;29;20051;-77
2022/11/25 07:31:17;;;;;;;9.43;2.53;;;8.30;82.10;;;;;;4959975;28;20044;-77
2022/11/25 07:33:43;;;;;;;10.07;3.13;;;8.30;82.40;;;;;;4960386;28;20087;-77
2022/11/25 07:36:11;;;;;;;3.72;2.30;;;8.30;82.30;;;;;;4959765;28;20515;-78
2022/11/25 07:38:37;;;;;;;4.75;2.70;;;8.30;82.40;;;;;;4958602;29;20035;-78
2022/11/25 07:41:06;;;;;;;4.88;2.75;;;8.30;82.60;;;;;;4960146;28;20031;-77
2022/11/25 07:43:32;;;;;;;6.18;2.58;;;8.30;82.60;;;;;;4959923;28;20067;-77
2022/11/25 07:46:20;;;;;;;8.00;2.72;;;8.40;82.70;;;;;;4958056;29;20034;-77
2022/11/25 07:48:46;;;;;;;6.97;2.33;;;8.40;82.70;;;;;;4958894;28;20030;-78
2022/11/25 07:51:24;;;;;;;17.10;3.05;;;8.40;82.80;;;;;;4958533;29;20147;-77
2022/11/25 07:53:52;;;;;;;9.82;3.65;;;8.50;82.90;;;;;;4959239;28;20031;-77
2022/11/25 07:56:18;;;;;;;8.55;2.92;;;8.50;82.80;;;;;;4960042;28;20118;-77
2022/11/25 07:58:44;;;;;;;10.43;4.15;;;8.50;82.90;;;;;;4956067;28;20118;-77
2022/11/25 08:01:12;;;;;;;16.55;5.25;;;8.50;83.00;;;;;;4959710;28;20448;-77
2022/11/25 08:03:39;;;;;;;10.35;5.30;;;8.50;83.00;;;;;;4959578;28;20460;-78
2022/11/25 08:06:08;;;;;;;15.98;4.50;;;8.60;83.20;;;;;;4959052;29;20082;-78
2022/11/25 08:08:35;;;;;;;10.95;4.20;;;8.60;83.00;;;;;;4959483;28;20086;-77
2022/11/25 08:11:09;;;;;;;11.10;3.72;;;8.60;83.00;;;;;;4957654;29;20027;-77
2022/11/25 08:13:35;;;;;;;15.52;3.58;;;8.70;83.20;;;;;;4959531;28;20078;-78
2022/11/25 08:16:01;;;;;;;10.52;3.08;;;8.70;83.20;;;;;;4958137;29;20032;-78
2022/11/25 08:18:27;;;;;;;7.60;3.28;;;8.70;83.30;;;;;;4959405;28;20055;-78
2022/11/25 08:21:03;;;;;;;12.57;2.80;;;8.80;83.20;;;;;;4957406;29;20118;-78
2022/11/25 08:23:30;;;;;;;8.30;2.75;;;8.70;83.20;;;;;;4959298;28;20086;-78
2022/11/25 08:25:56;;;;;;;5.75;2.10;;;8.80;83.20;;;;;;4959080;28;20043;-78
2022/11/25 08:28:22;;;;;;;10.32;2.55;;;8.80;83.20;;;;;;4958782;28;20023;-78
2022/11/25 08:30:48;;;;;;;7.95;1.83;;;8.80;83.30;;;;;;4958794;28;20055;-77
2022/11/25 08:33:14;;;;;;;6.07;2.35;;;8.80;83.30;;;;;;4958716;28;20035;-77
2022/11/25 08:35:40;;;;;;;7.47;2.63;;;8.90;83.30;;;;;;4959272;28;20054;-78
2022/11/25 08:38:10;;;;;;;10.20;2.35;;;8.90;83.40;;;;;;4959035;28;20102;-78
2022/11/25 08:40:36;;;;;;;7.55;2.90;;;8.90;83.40;;;;;;4958388;28;20027;-78
2022/11/25 08:43:02;;;;;;;11.38;2.75;;;8.90;83.40;;;;;;4957534;29;20031;-78
2022/11/25 08:45:29;;;;;;;10.45;2.85;;;9.00;83.40;;;;;;4958739;28;20036;-77
2022/11/25 08:47:55;;;;;;;7.88;2.20;;;9.00;83.50;;;;;;4958870;28;20042;-78
2022/11/25 08:50:23;;;;;;;10.00;3.08;;;9.00;83.60;;;;;;4958303;28;20078;-78
2022/11/25 08:52:49;;;;;;;15.70;2.47;;;9.00;83.60;;;;;;4958668;28;20023;-77
2022/11/25 08:55:15;;;;;;;9.80;2.50;;;9.10;83.50;;;;;;4939699;29;20031;-77
2022/11/25 08:57:41;;;;;;;10.75;2.70;;;9.10;83.60;;;;;;4946242;29;20039;-77
2022/11/25 09:00:08;;;;;;;10.57;2.58;;;9.10;83.70;;;;;;4958337;28;20035;-77
2022/11/25 09:02:33;;;;;;;6.40;2.10;;;9.20;83.80;;;;;;4957493;29;20027;-78
2022/11/25 09:04:59;;;;;;;10.15;2.15;;;9.20;84.10;;;;;;4947999;28;20046;-77
2022/11/25 09:07:25;;;;;;;13.60;2.67;;;9.20;84.20;;;;;;4953909;29;20020;-77
2022/11/25 09:09:51;;;;;;;11.32;3.17;;;9.30;84.40;;;;;;4956704;29;20035;-77
2022/11/25 09:12:17;;;;;;;8.63;2.70;;;9.40;84.30;;;;;;4957012;29;20030;-77
2022/11/25 09:14:42;;;;;;;6.65;4.32;;;9.50;84.50;;;;;;4956962;29;20090;-78
2022/11/25 09:17:10;;;;;;;10.65;3.70;;;9.60;84.30;;;;;;4958421;29;20023;-77
2022/11/25 09:19:36;;;;;;;6.50;2.38;;;9.70;84.30;;;;;;4957672;28;20042;-78
2022/11/25 09:22:01;;;;;;;14.40;2.58;;;9.80;84.20;;;;;;4958193;28;20027;-77
2022/11/25 09:24:27;;;;;;;8.07;2.97;;;9.80;84.30;;;;;;4941005;28;20043;-77
2022/11/25 09:26:53;;;;;;;9.52;2.17;;;9.90;84.40;;;;;;4939241;29;20400;-77
2022/11/25 09:29:19;;;;;;;5.90;2.50;;;9.90;84.40;;;;;;4953783;29;20035;-78
2022/11/25 09:31:44;;;;;;;14.07;2.65;;;9.90;84.10;;;;;;4953370;28;20062;-77
2022/11/25 09:34:10;;;;;;;9.40;2.33;;;10.00;84.40;;;;;;4957532;28;20063;-77
2022/11/25 09:36:36;;;;;;;17.10;2.70;;;10.00;84.20;;;;;;4953456;29;20055;-78
2022/11/25 09:39:02;;;;;;;9.73;2.20;;;10.00;84.20;;;;;;4938870;29;20125;-78
2022/11/25 09:48:14;;;;;;;8.23;2.50;;;10.20;84.40;;;;;;4947969;28;20034;-78
2022/11/25 09:51:13;;;;;;;4.63;2.65;;;10.20;84.20;;;;;;4955684;28;20042;-77
2022/11/25 09:53:43;;;;;;;9.10;2.13;;;10.30;84.70;;;;;;4965069;28;20023;-78
2022/11/25 09:56:28;;;;;;;2.70;1.75;;;10.30;84.20;;;;;;4957940;28;20027;-77
2022/11/25 09:59:01;;;;;;;10.02;2.75;;;10.30;84.40;;;;;;4955765;29;20118;-77
2022/11/25 10:01:29;;;;;;;11.10;2.85;;;10.40;84.40;;;;;;4954554;28;20019;-78
2022/11/25 10:04:05;;;;;;;7.72;3.17;;;10.50;84.30;;;;;;4957172;28;20039;-77
2022/11/25 10:06:44;;;;;;;7.18;2.28;;;10.50;84.50;;;;;;4957429;28;20035;-77
2022/11/25 10:09:18;;;;;;;9.20;2.20;;;10.60;84.40;;;;;;4940360;29;20028;-77
2022/11/25 10:11:50;;;;;;;4.78;2.22;;;10.60;84.40;;;;;;4956408;28;20419;-77
2022/11/25 10:14:48;;;;;;;11.70;2.60;;;10.70;84.30;;;;;;4956324;29;20062;-77
2022/11/25 10:17:40;;;;;;;17.33;2.70;;;10.70;84.20;;;;;;4957540;28;20043;-77
2022/11/25 10:20:16;;;;;;;9.30;2.42;;;10.70;84.40;;;;;;4956953;28;20036;-78
2022/11/25 10:22:54;;;;;;;10.35;2.83;;;10.80;84.40;;;;;;4957628;28;20023;-78
2022/11/25 10:25:27;;;;;;;8.52;2.58;;;10.80;84.50;;;;;;4956787;28;20038;-77
2022/11/25 10:28:16;;;;;;;8.80;2.38;;;10.80;84.30;;;;;;4957399;28;20028;-78
2022/11/25 10:31:01;;;;;;;5.53;2.22;;;10.90;84.20;;;;;;4957128;28;20033;-77
2022/11/25 10:33:31;;;;;;;9.48;2.80;;;10.90;84.30;;;;;;4938234;29;20063;-77
2022/11/25 10:36:12;;;;;;;7.55;2.08;;;11.00;84.20;;;;;;4938473;29;20035;-78
2022/11/25 10:39:04;;;;;;;6.78;2.40;;;11.00;84.20;;;;;;4938195;29;20039;-78
2022/11/25 10:42:02;;;;;;;14.45;2.72;;;11.10;84.10;;;;;;4942636;29;20035;-79
2022/11/25 10:44:38;;;;;;;10.95;2.50;;;11.10;83.90;;;;;;4957349;28;20118;-77
2022/11/25 10:47:26;;;;;;;10.30;2.83;;;11.20;84.20;;;;;;4951724;28;20062;-78
2022/11/25 10:50:12;;;;;;;10.10;2.25;;;11.20;84.20;;;;;;4938155;29;20083;-78
2022/11/25 10:53:01;;;;;;;10.27;2.65;;;11.20;84.30;;;;;;4944631;29;20035;-78
2022/11/25 10:55:30;;;;;;;11.02;2.65;;;11.20;84.00;;;;;;4957363;28;20035;-77
2022/11/25 10:57:57;;;;;;;9.60;2.78;;;11.30;83.90;;;;;;4955873;29;20582;-77
2022/11/25 11:00:28;;;;;;;12.88;2.83;;;11.30;83.70;;;;;;4956946;28;20036;-78
2022/11/25 11:02:55;;;;;;;9.90;2.35;;;11.30;83.80;;;;;;4940862;29;20106;-78
2022/11/25 11:05:28;;;;;;;7.38;2.67;;;11.30;83.80;;;;;;4937913;29;20032;-78
2022/11/25 11:08:15;;;;;;;18.27;2.92;;;11.40;83.70;;;;;;4942763;29;20046;-78
2022/11/25 11:10:41;;;;;;;9.82;2.45;;;11.50;83.80;;;;;;4956822;28;20063;-78
2022/11/25 11:13:31;;;;;;;7.45;2.42;;;11.50;83.90;;;;;;4942109;29;20039;-78
2022/11/25 11:15:57;;;;;;;9.18;2.58;;;11.50;83.60;;;;;;4939039;29;20028;-78
2022/11/25 11:18:39;;;;;;;5.68;2.22;;;11.60;83.80;;;;;;4953556;28;20035;-78
2022/11/25 11:21:19;;;;;;;11.35;2.53;;;11.60;83.60;;;;;;4956420;28;20059;-78
2022/11/25 11:23:53;;;;;;;7.55;2.10;;;11.70;83.60;;;;;;4957599;28;20129;-78
2022/11/25 11:26:29;;;;;;;7.22;1.92;;;11.80;83.50;;;;;;4960128;28;20035;-78
2022/11/25 11:29:13;;;;;;;6.00;1.48;;;11.80;83.90;;;;;;4947781;28;20033;-78
2022/11/25 11:31:45;;;;;;;5.97;1.98;;;11.80;83.60;;;;;;4940940;29;20079;-78
2022/11/25 11:34:45;;;;;;;11.05;2.58;;;11.80;83.50;;;;;;4950917;29;20039;-78
2022/11/25 11:37:25;;;;;;;7.07;2.00;;;11.90;83.70;;;;;;4960394;28;20038;-78
2022/11/25 11:40:28;;;;;;;5.50;2.38;;;11.90;83.70;;;;;;4959122;29;20033;-78
2022/11/25 11:43:05;;;;;;;6.72;1.65;;;12.00;83.80;;;;;;4954666;29;20031;-78
2022/11/25 11:45:43;;;;;;;3.35;1.52;;;12.00;83.40;;;;;;4939622;29;20035;-77
2022/11/25 11:48:28;;;;;;;11.13;2.30;;;12.10;83.20;;;;;;4945055;28;20122;-78
2022/11/25 11:51:19;;;;;;;5.10;1.90;;;12.10;82.90;;;;;;4963779;28;20023;-78
2022/11/25 11:54:09;;;;;;;15.32;2.30;;;12.20;82.80;;;;;;4932294;28;20059;-78
2022/11/25 11:56:49;;;;;;;9.50;1.92;;;12.20;83.00;;;;;;4957911;29;20038;-78
2022/11/25 11:59:20;;;;;;;;;;;12.20;82.70;;;;;;4959616;28;20499;-78
2022/11/25 12:02:39;;;;;;;3.00;1.30;;;12.30;82.60;;;;;;4958359;29;19910;-78
2022/11/25 12:05:14;;;;;;;9.45;1.92;;;12.30;82.00;;;;;;4919094;29;20570;-78
2022/11/25 12:07:48;;;;;;;10.43;1.42;;;12.30;81.70;;;;;;4958504;28;20106;-78
2022/11/25 12:10:14;;;;;;;10.52;2.30;;;12.30;81.70;;;;;;4959544;28;20027;-78
2022/11/25 12:13:01;;;;;;;6.97;2.03;;;12.40;81.80;;;;;;4949010;29;20550;-77
2022/11/25 12:15:50;;;;;;;9.88;2.00;;;12.40;81.60;;;;;;4939202;29;20066;-78
2022/11/25 12:18:48;;;;;;;4.15;1.58;;;12.40;81.70;;;;;;4938741;29;20443;-78
2022/11/25 12:21:51;;;;;;;8.15;2.20;;;12.40;81.70;;;;;;4938604;29;20031;-78
2022/11/25 12:24:26;;;;;;;15.35;2.10;;;12.50;81.70;;;;;;4938997;29;20452;-78
2022/11/25 12:27:29;;;;;;;10.73;2.13;;;12.50;81.70;;;;;;4940032;29;20024;-78
2022/11/25 12:30:06;;;;;;;6.07;2.15;;;12.50;81.60;;;;;;4938836;29;20088;-78
2022/11/25 12:32:34;;;;;;;7.55;2.00;;;12.60;81.70;;;;;;4938481;29;20050;-78
2022/11/25 12:35:09;;;;;;;7.22;2.40;;;12.70;81.60;;;;;;4955466;28;20042;-78
2022/11/25 12:38:03;;;;;;;6.88;2.20;;;12.70;81.30;;;;;;4957736;29;20520;-78
2022/11/25 12:40:34;;;;;;;8.20;2.58;;;12.70;81.40;;;;;;4938422;29;20058;-78
2022/11/25 12:43:15;;;;;;;5.53;1.98;;;12.80;81.10;;;;;;4939987;29;20492;-78
2022/11/25 12:45:44;;;;;;;11.27;2.22;;;12.80;81.20;;;;;;4950413;29;20496;-78
2022/11/25 12:48:10;;;;;;;10.85;2.63;;;12.80;81.00;;;;;;4958818;28;20480;-78
2022/11/25 12:51:06;;;;;;;11.68;2.78;;;12.80;80.90;;;;;;4956915;29;20039;-78
2022/11/25 12:53:46;;;;;;;6.97;2.20;;;12.80;81.00;;;;;;4958672;28;20027;-78
2022/11/25 12:56:16;;;;;;;;;;;12.90;80.60;;;;;;4958327;29;20069;-78
2022/11/25 12:59:17;;;;;;;11.45;2.67;;;12.90;80.60;;;;;;4957378;29;19950;-78
2022/11/25 13:02:01;;;;;;;5.93;2.03;;;12.90;80.20;;;;;;4937263;29;20499;-78
2022/11/25 13:04:52;;;;;;;9.45;3.20;;;12.90;80.20;;;;;;4938316;29;20035;-78
2022/11/25 13:07:29;;;;;;;12.32;2.03;;;12.90;80.40;;;;;;4939326;29;20035;-77
2022/11/25 13:10:20;;;;;;;8.00;1.65;;;12.90;80.40;;;;;;4939345;29;20035;-78
2022/11/25 13:12:54;;;;;;;9.45;2.47;;;13.00;80.10;;;;;;4939092;29;20027;-78
2022/11/25 13:15:23;;;;;;;9.18;2.05;;;13.00;80.20;;;;;;4953919;29;20099;-79
2022/11/25 13:17:53;;;;;;;14.95;2.45;;;13.00;80.10;;;;;;4953992;29;20384;-78
2022/11/25 13:20:27;;;;;;;4.47;1.80;;;13.00;80.00;;;;;;4949728;29;20039;-78
2022/11/25 13:23:09;;;;;;;10.75;2.10;;;13.00;79.40;;;;;;4958183;28;20027;-77
2022/11/25 13:25:37;;;;;;;7.35;2.00;;;13.10;79.80;;;;;;4957680;28;20478;-78
2022/11/25 13:28:24;;;;;;;6.72;1.35;;;13.10;79.40;;;;;;4958132;28;20058;-78
2022/11/25 13:30:52;;;;;;;11.18;2.28;;;13.10;79.60;;;;;;4955706;29;20055;-78
2022/11/25 13:33:23;;;;;;;12.90;2.28;;;13.20;79.10;;;;;;4958209;28;20015;-78
2022/11/25 13:35:53;;;;;;;7.57;1.63;;;13.20;79.30;;;;;;4957563;28;20031;-79
2022/11/25 13:38:28;;;;;;;7.05;1.88;;;13.20;78.90;;;;;;4956929;29;20608;-79
2022/11/25 13:40:57;;;;;;;6.45;1.70;;;13.20;78.80;;;;;;4957980;28;20042;-78
2022/11/25 13:43:22;;;;;;;5.18;1.65;;;13.20;79.00;;;;;;4957400;28;20789;-78
2022/11/25 13:45:48;;;;;;;8.85;2.72;;;13.20;79.00;;;;;;4957459;28;20050;-78
2022/11/25 13:48:25;;;;;;;8.23;2.00;;;13.20;78.80;;;;;;4956309;29;20027;-78
2022/11/25 13:51:11;;;;;;;14.65;2.70;;;13.20;78.50;;;;;;4954340;28;20036;-78
2022/11/25 13:53:37;;;;;;;12.07;1.83;;;13.10;78.80;;;;;;4953474;29;20507;-78
2022/11/25 13:56:30;;;;;;;7.57;2.05;;;13.20;78.70;;;;;;4953901;28;20082;-78
2022/11/25 13:59:12;;;;;;;8.57;1.85;;;13.10;79.00;;;;;;4957101;28;20116;-78
2022/11/25 14:01:52;;;;;;;6.35;1.70;;;13.20;79.10;;;;;;4957995;28;20031;-78
2022/11/25 14:04:37;;;;;;;7.43;1.75;;;13.20;79.50;;;;;;4957242;28;20031;-77
2022/11/25 14:07:26;;;;;;;6.47;1.30;;;13.20;78.90;;;;;;4957655;28;20114;-78
2022/11/25 14:09:59;;;;;;;10.48;1.83;;;13.20;78.70;;;;;;4952134;29;20043;-78
2022/11/25 14:12:39;;;;;;;6.03;1.48;;;13.30;78.50;;;;;;4957079;28;20034;-78
2022/11/25 14:15:20;;;;;;;7.05;1.73;;;13.30;78.40;;;;;;4957216;28;20414;-78
2022/11/25 14:18:20;;;;;;;10.25;1.85;;;13.30;78.00;;;;;;4956258;29;20050;-78
2022/11/25 14:21:03;;;;;;;7.90;1.83;;;13.30;77.60;;;;;;4937042;29;20040;-78
2022/11/25 14:24:11;;;;;;;4.45;1.55;;;13.40;77.70;;;;;;4936742;29;20035;-78
2022/11/25 14:26:39;;;;;;;2.33;1.08;;;13.40;77.40;;;;;;4928307;29;20527;-78
2022/11/25 14:29:43;;;;;;;5.35;1.35;;;13.40;77.50;;;;;;4938111;29;20040;-78
2022/11/25 14:32:24;;;;;;;5.82;1.02;;;13.30;77.50;;;;;;4929850;29;20048;-78
2022/11/25 14:35:02;;;;;;;5.30;1.17;;;13.30;77.20;;;;;;4937870;29;20055;-78
2022/11/25 14:37:43;;;;;;;7.07;1.27;;;13.30;77.60;;;;;;4953193;29;20031;-78
2022/11/25 14:40:22;;;;;;;5.57;1.67;;;13.30;77.80;;;;;;4949721;29;20021;-78
2022/11/25 14:42:56;;;;;;;13.93;1.30;;;13.30;77.70;;;;;;4957034;28;20034;-78
2022/11/25 14:45:32;;;;;;;4.93;2.17;;;13.30;77.80;;;;;;4955875;29;20032;-78
2022/11/25 14:48:11;;;;;;;5.60;1.60;;;13.30;77.90;;;;;;4941923;28;20027;-78
2022/11/25 14:50:38;;;;;;;8.45;1.33;;;13.20;78.00;;;;;;4938183;29;20028;-78
2022/11/25 14:53:06;;;;;;;11.35;1.67;;;13.30;78.10;;;;;;4948521;29;20027;-78
2022/11/25 14:55:32;;;;;;;8.50;1.42;;;13.20;77.70;;;;;;4957277;28;20111;-78
2022/11/25 14:57:57;;;;;;;6.97;1.55;;;13.20;77.00;;;;;;4957720;28;20059;-77
2022/11/25 15:00:23;;;;;;;6.38;1.27;;;13.20;77.80;;;;;;4960635;28;20058;-78
2022/11/25 15:03:00;;;;;;;9.48;1.73;;;13.20;78.00;;;;;;4960305;28;20038;-78
2022/11/25 15:05:33;;;;;;;5.57;1.40;;;13.20;78.10;;;;;;4960649;28;20039;-78
2022/11/25 15:08:06;;;;;;;12.50;2.40;;;13.20;77.90;;;;;;4960269;28;20070;-77
2022/11/25 15:10:38;;;;;;;5.28;1.48;;;13.20;77.80;;;;;;4943724;29;20086;-77
2022/11/25 15:13:22;;;;;;;10.52;1.75;;;13.10;78.00;;;;;;4960607;28;20034;-77
2022/11/25 15:15:49;;;;;;;9.18;1.90;;;13.10;77.90;;;;;;4959882;28;20034;-77
2022/11/25 15:18:23;;;;;;;6.97;1.58;;;13.10;77.80;;;;;;4960541;28;20039;-77
2022/11/25 15:20:58;;;;;;;11.85;1.80;;;13.10;77.80;;;;;;4960504;28;20027;-77
2022/11/25 15:23:35;;;;;;;7.38;1.60;;;13.10;78.10;;;;;;4944026;28;20054;-77
2022/11/25 15:26:03;;;;;;;5.30;1.33;;;13.00;78.30;;;;;;4941201;29;20028;-77
2022/11/25 15:28:36;;;;;;;11.70;1.90;;;13.00;78.30;;;;;;4941191;29;20055;-77
2022/11/25 15:31:08;;;;;;;7.50;1.90;;;12.90;78.50;;;;;;4941103;29;20056;-77
2022/11/25 15:33:36;;;;;;;6.82;2.63;;;12.90;78.60;;;;;;4941743;29;20147;-77
2022/11/25 15:36:02;;;;;;;12.13;3.28;;;12.90;78.30;;;;;;4941067;29;20034;-77
2022/11/25 15:38:42;;;;;;;10.27;2.78;;;12.90;78.30;;;;;;4958322;29;20028;-77
2022/11/25 15:41:31;;;;;;;;;;;12.80;78.30;;;;;;4960647;28;20106;-78
2022/11/25 15:44:00;;;;;;;8.32;2.88;;;12.80;78.60;;;;;;4950694;29;19910;-77
2022/11/25 15:46:27;;;;;;;5.57;2.30;;;12.80;78.70;;;;;;4950923;28;20103;-77
2022/11/25 15:48:57;;;;;;;9.80;2.38;;;12.70;78.80;;;;;;4941058;29;20091;-77
2022/11/25 15:51:28;;;;;;;14.65;3.20;;;12.60;79.10;;;;;;4940888;29;20030;-77
2022/11/25 15:54:12;;;;;;;5.78;1.70;;;12.60;79.30;;;;;;4957377;29;20042;-77
2022/11/25 15:56:42;;;;;;;5.80;1.65;;;12.50;79.50;;;;;;4959867;28;20794;-77
2022/11/25 15:59:28;;;;;;;;;;;12.40;79.40;;;;;;4960108;28;20066;-77
2022/11/25 16:01:53;;;;;;;10.43;2.53;;;12.40;79.90;;;;;;4938059;28;19938;-81
2022/11/25 16:04:21;;;;;;;7.68;2.72;;;12.30;79.90;;;;;;4951163;29;20035;-81
2022/11/25 16:06:58;;;;;;;8.70;3.10;;;12.30;80.20;;;;;;4956809;29;20039;-81
2022/11/25 16:09:26;;;;;;;6.60;2.53;;;12.20;80.30;;;;;;4953693;28;20023;-81
2022/11/25 16:11:52;;;;;;;8.73;2.67;;;12.20;80.50;;;;;;4962749;28;20118;-81
2022/11/25 16:14:27;;;;;;;15.07;3.00;;;12.10;80.70;;;;;;4959212;28;20051;-81
2022/11/25 16:17:00;;;;;;;9.88;3.08;;;12.10;80.80;;;;;;4959328;29;20074;-81
2022/11/25 16:19:37;;;;;;;6.82;2.80;;;12.00;80.80;;;;;;4958892;28;20122;-81
2022/11/25 16:22:03;;;;;;;11.77;3.20;;;11.90;80.80;;;;;;4965266;28;20048;-81
2022/11/25 16:24:55;;;;;;;13.10;3.17;;;11.90;80.90;;;;;;4962571;28;20074;-81
2022/11/25 16:27:26;;;;;;;9.23;2.78;;;11.80;81.10;;;;;;4952454;28;20039;-81
2022/11/25 16:30:07;;;;;;;10.02;2.78;;;11.80;81.30;;;;;;4957497;29;20031;-81
2022/11/25 16:32:33;;;;;;;4.82;2.47;;;11.70;81.20;;;;;;4957420;28;20042;-82
2022/11/25 16:35:18;;;;;;;11.77;3.50;;;11.70;81.30;;;;;;4958224;29;20601;-82
2022/11/25 16:37:43;;;;;;;7.15;4.40;;;11.70;81.40;;;;;;4958110;29;20035;-81
2022/11/25 16:40:13;;;;;;;8.93;4.70;;;11.60;81.50;;;;;;4957768;29;20036;-81
2022/11/25 16:42:39;;;;;;;13.68;5.55;;;11.60;81.60;;;;;;4953150;29;20392;-82
2022/11/25 16:45:26;;;;;;;15.88;6.95;;;11.50;81.50;;;;;;4957069;28;20127;-79
2022/11/25 16:47:52;;;;;;;11.43;5.35;;;11.50;81.40;;;;;;4950361;29;20043;-83
2022/11/25 16:50:18;;;;;;;15.43;6.22;;;11.50;81.50;;;;;;4955352;29;20506;-89
2022/11/25 16:52:44;;;;;;;11.15;5.13;;;11.50;81.50;;;;;;4954546;28;20031;-87
2022/11/25 16:55:10;;;;;;;8.68;4.68;;;11.40;81.60;;;;;;4956173;29;20031;-84
2022/11/25 16:57:37;;;;;;;11.07;5.03;;;11.40;81.70;;;;;;4957575;28;20023;-81
2022/11/25 17:00:10;;;;;;;8.88;4.80;;;11.30;81.70;;;;;;4957389;29;20028;-84
2022/11/25 17:02:35;;;;;;;7.82;3.92;;;11.30;81.80;;;;;;4956982;29;20114;-84
2022/11/25 17:05:17;;;;;;;10.45;4.07;;;11.30;81.80;;;;;;4956329;28;20059;-79
2022/11/25 17:07:42;;;;;;;10.55;4.07;;;11.30;81.90;;;;;;4955200;28;20027;-81
2022/11/25 17:10:09;;;;;;;8.65;3.80;;;11.20;81.70;;;;;;4962787;28;20107;-85
2022/11/25 17:12:37;;;;;;;9.80;4.25;;;11.20;81.60;;;;;;4965234;28;20594;-85
2022/11/25 17:15:06;;;;;;;8.02;4.13;;;11.20;81.70;;;;;;4956909;28;20952;-86
2022/11/25 17:17:33;;;;;;;11.60;5.13;;;11.10;81.80;;;;;;4954958;28;20050;-86
2022/11/25 17:19:59;;;;;;;16.67;7.57;;;11.10;81.90;;;;;;4957191;28;20278;-84
2022/11/25 17:22:26;;;;;;;15.90;7.30;;;11.10;81.80;;;;;;4948693;28;20117;-84
2022/11/25 17:24:52;;;;;;;13.85;9.85;;;11.00;81.70;;;;;;4961535;28;20031;-84
2022/11/25 17:27:30;;;;;;;18.63;9.43;;;11.00;81.70;;;;;;4956723;28;20023;-83
2022/11/25 17:29:57;;;;;;;18.85;8.35;;;11.00;82.20;;;;;;4960360;28;20034;-84
2022/11/25 17:32:24;;;;;;;19.35;8.82;;;11.00;82.10;;;;;;4965933;28;20399;-85
2022/11/25 17:34:50;;;;;;;20.05;8.90;;;11.00;82.10;;;;;;4962125;28;20031;-84
2022/11/25 17:37:19;;;;;;;21.65;8.45;;;10.90;82.10;;;;;;4965856;28;20494;-84
2022/11/25 17:39:45;;;;;;;20.15;10.65;;;10.90;81.90;;;;;;4954296;28;20045;-86
2022/11/25 17:42:14;;;;;;;17.73;9.80;;;10.90;82.10;;;;;;4965318;28;20039;-84
2022/11/25 17:44:41;;;;;;;21.47;9.30;;;10.90;82.00;;;;;;4959124;28;20062;-84
2022/11/25 17:47:13;;;;;;;20.70;11.15;;;10.90;82.00;;;;;;4963765;28;20018;-84
2022/11/25 17:49:39;;;;;;;25.05;11.27;;;10.80;82.00;;;;;;4967365;28;20089;-84
2022/11/25 17:52:05;;;;;;;17.65;9.68;;;10.90;82.00;;;;;;4954777;28;20058;-84
2022/11/25 17:54:31;;;;;;;18.50;10.90;;;10.80;82.00;;;;;;4962317;28;20019;-84
2022/11/25 17:56:57;;;;;;;17.67;10.38;;;10.80;82.00;;;;;;4964375;28;20525;-84
2022/11/25 17:59:27;;;;;;;20.38;11.10;;;10.70;82.20;;;;;;4963759;28;20144;-84
2022/11/25 18:01:54;;;;;;;24.45;11.40;;;10.80;82.10;;;;;;4962081;28;20038;-84
2022/11/25 18:04:38;;;;;;;28.90;13.43;;;10.70;81.90;;;;;;4955777;28;20042;-84
2022/11/25 18:07:04;;;;;;;26.77;14.73;;;10.70;82.00;;;;;;4961819;28;20085;-84
2022/11/25 18:09:29;;;;;;;24.58;12.02;;;10.60;81.90;;;;;;4962404;28;20024;-83
2022/11/25 18:11:58;;;;;;;29.58;15.52;;;10.60;82.10;;;;;;4961203;28;20067;-84
2022/11/25 18:14:30;;;;;;;29.85;14.40;;;10.50;82.10;;;;;;4964078;28;20019;-84
2022/11/25 18:17:01;;;;;;;22.35;12.85;;;10.60;82.20;;;;;;4955386;28;20034;-84
2022/11/25 18:19:26;;;;;;;;;;;10.60;82.30;;;;;;4962172;28;20022;-84
2022/11/25 18:21:57;;;;;;;26.73;13.23;;;10.50;82.10;;;;;;4964929;28;19918;-84
2022/11/25 18:24:23;;;;;;;23.05;13.25;;;10.60;82.10;;;;;;4960849;28;20023;-84
2022/11/25 18:26:51;;;;;;;34.45;15.98;;;10.50;82.30;;;;;;4954690;28;20488;-84
2022/11/25 18:29:25;;;;;;;33.75;16.45;;;10.50;82.40;;;;;;4964274;28;20398;-84
2022/11/25 18:31:55;;;;;;;28.92;16.42;;;10.50;82.40;;;;;;4957690;28;20082;-82
2022/11/25 18:34:22;;;;;;;26.48;14.05;;;10.50;82.30;;;;;;4955572;28;20041;-84
2022/11/25 18:36:49;;;;;;;28.00;14.13;;;10.60;82.20;;;;;;4959424;28;20090;-80
2022/11/25 18:39:20;;;;;;;26.27;14.48;;;10.50;82.30;;;;;;4958188;28;20034;-79
2022/11/25 18:41:48;;;;;;;28.65;13.65;;;10.50;82.40;;;;;;4967957;28;20503;-77
2022/11/25 18:44:23;;;;;;;22.80;12.63;;;10.50;82.40;;;;;;4961666;28;20119;-75
2022/11/25 18:46:49;;;;;;;17.90;10.65;;;10.40;82.30;;;;;;4963934;28;20411;-76
2022/11/25 18:49:15;;;;;;;20.92;10.35;;;10.40;82.30;;;;;;4959666;28;20028;-76
2022/11/25 18:51:41;;;;;;;20.35;12.45;;;10.40;82.40;;;;;;4959266;28;20038;-77